Airfield :
LOGIN :

Register | Disclaimer

   EN    FR    IT 

 










Legend :    VFR   Marginal VFR   IFR   Intensive IFR   Very Intensive IFR
Visi :
Ceiling :
>= 8 km
>= 3000ft
5 to 8 km
1000 to 3000 ft
1500m to 5 km
500 to 1000 ft
800 to 1500m
200 to 500 ft
< 800m
< 200 ft
Symbols :   Thunderstorms  Fog  Heavy snow  Heavy precipitations  Wind > 20 kt
SIGMETs :     Misc.  Thunderstorms  Icing  Turbulence  Mountain Waves  Volcanic Ashes







- Airport Elevation : 499 ft
- IATA code : TLS
- Download approach charts


LFBO - Toulouse / Blagnac

CURRENT METAR :
  • 242100Z AUTO 14012KT CAVOK 24/11 Q1014 NOSIG

EXPIRED METARs :
  • 242030Z AUTO 13015KT CAVOK 25/12 Q1013 NOSIG
  • 242000Z AUTO 13013KT CAVOK 25/11 Q1013 NOSIG
  • 241930Z AUTO 13017KT CAVOK 25/11 Q1013 NOSIG
  • 241900Z AUTO 12016KT CAVOK 26/10 Q1013 NOSIG
  • 241830Z AUTO 12015G27KT CAVOK 27/08 Q1013 BECMG 13013KT

TAF TAF LFBO
Valid from the 24 at 18:00 until the 26 at 00:00 UTC


241700Z 2418/2524 13013KT CAVOK
BECMG 2500/2502 25007KT
BECMG 2503/2505 VRB03KT
PROB30
TEMPO 2503/2506 BKN010
BECMG 2508/2510 14012KT
PROB30
TEMPO 2509/2512 SCT030
ATIS : +33 5 62 74 66 36
No reported NOTAMs for that airfield.



MET'MAP, your aeronautical weather chart ! - Copyright ORBIFLY December 2007 - Disclaimer

ORBIFLY MET'MAP TEAM :

Programming & Development : Alexandra Zaïnal
Concept & Development : Baudouin d'Aumeries
Co-Development & Prog : Marc-Olivier Méhu
Technical & hardware support : Manuel Goepfert

Contact : metmap@orbifly.com




SOURCES & CREDITS :

   NOAA